x

South Moresby (46147) Wave Buoy

1:00pm - Sat 20th Dec 2014 All times are PST. -8 hours from GMT.

  • Sig Wave height 16.1ft
  • Peak Period 12s
  • Wind
    18mph, 29mph gusts
  • Sea Temp 50°f
  • Air Temp 49°f
  • Sea Pressure 984.9mb
  • South Moresby
  • South Moresby

More Historic Weather Station data

Upgrade to MSW Pro to gain access to the past 30 days of data for over 8000 Wavebouys and Weather Stations around the globe.

Join Pro

Comparision Forecast

View Surf forecast
   
Sat 12/20 1:00pm 16ft 12s 18 29 mph 984.9mb 50f 49f
12:00pm 17ft 10s 18 25 mph 984.9mb 50f 51f
11:00am 17ft 12s 20 27 mph 984.8mb 50f 51f
10:00am 17.5ft 14s 22 27 mph 984.5mb 50f 50f
9:00am 19ft 11s 20 25 mph 983.8mb 50f 51f
8:00am 22.5ft 11s 20 27 mph 983mb 50f 51f
7:00am 21.5ft 10s 20 27 mph 982.5mb 50f 50f
6:00am 22ft 11s 22 27 mph 982.4mb 50f 50f
5:00am 23ft 11s 22 29 mph 982.3mb 50f 50f
4:00am 21.5ft 10s 25 31 mph 982.4mb 50f 50f
3:00am 24.5ft 11s 22 27 mph 982.5mb 50f 51f
2:00am 22.5ft 10s 34 45 mph 982.2mb 50f 49f
1:00am 22.5ft 16s 36 47 mph 983.1mb 50f 48f
12:00am 22ft 17s 38 49 mph 984.5mb 50f 49f
Fri 12/19 11:00pm 21ft 17s 38 47 mph 986mb 50f 49f
10:00pm 23ft 14s 34 45 mph 987.5mb 50f 49f
9:00pm 23ft 16s 31 40 mph 988.9mb 50f 49f
8:00pm 25.5ft 16s 29 40 mph 990.3mb 50f 49f
7:00pm 28.5ft 15s 29 36 mph 991.4mb 50f 48f
6:00pm 27ft 16s 27 34 mph 992.8mb 50f 47f
5:00pm 26.5ft 17s 27 34 mph 993.5mb 50f 49f
4:00pm 28.5ft 16s 25 31 mph 994.1mb 50f 49f
3:00pm 23ft 16s 27 34 mph 994.3mb 50f 50f
2:00pm 23.5ft 17s 22 29 mph 994.4mb 50f 49f
1:00pm 22.5ft 15s 27 34 mph 994.4mb 50f 49f
12:00pm 20.5ft 17s 27 34 mph 994mb 50f 49f
10:00am 19.5ft 18s 20 40 mph 993.4mb 50f 48f
9:00am 22ft 20s 27 36 mph 992.8mb 50f 49f
8:00am 19.5ft 20s 22 27 mph 993mb 50f 46f
7:00am 20ft 18s 25 31 mph 993.1mb 50f 49f
6:00am 19.5ft 20s 25 34 mph 993.2mb 50f 48f
5:00am 17ft 16s 20 34 mph 993.8mb 50f 48f
4:00am 18ft 18s 22 29 mph 994.2mb 50f 49f
3:00am 18.5ft 16s 22 29 mph 994.3mb 50f 49f
2:00am 16.5ft 20s 22 27 mph 994.1mb 50f 49f
1:00am 15.5ft 18s 20 25 mph 993.9mb 50f 49f
12:00am 16.5ft 11s 18 22 mph 994mb 50f 49f
Thu 12/18 11:00pm 16ft 10s 18 22 mph 993.7mb 50f 49f
10:00pm 16ft 10s 16 22 mph 993.4mb 50f 49f
9:00pm 17.5ft 10s 13 18 mph 993mb 50f 49f
8:00pm 16ft 12s 16 20 mph 992.5mb 50f 48f
7:00pm 17ft 11s 13 18 mph 992.1mb 50f 48f
6:00pm 18.5ft 12s 9 13 mph 991.8mb 50f 48f
5:00pm 18.5ft 11s 9 13 mph 991.4mb 50f 47f
4:00pm 20ft 12s 4 7 mph 991.4mb 50f 47f
3:00pm 21ft 12s 4 13 mph 991mb 50f 47f
1:00pm 23.5ft 12s 11 18 mph 991mb 50f 47f
12:00pm 27ft 11s 31 43 mph 990.1mb 50f 49f
11:00am 26ft 11s 43 54 mph 989.1mb 50f 49f
10:00am 22.5ft 12s 43 54 mph 989.7mb 50f 49f
9:00am 22ft 11s 45 58 mph 989.8mb 50f 49f
8:00am 21.5ft 10s 43 56 mph 990.2mb 50f 49f
7:00am 20ft 9s 43 58 mph 991.3mb 50f 49f
6:00am 16.5ft 8s 43 54 mph 992.8mb 50f 49f
5:00am 15.5ft 8s 38 49 mph 994.6mb 50f 48f
4:00am 14ft 8s 38 49 mph 996.1mb 50f 49f
3:00am 12.5ft 7s 36 43 mph 997.6mb 50f 49f
2:00am 12ft 11s 34 40 mph 998.6mb 50f 50f
1:00am 11.5ft 12s 29 36 mph 1000mb 50f 50f
12:00am  -   -  27
mph
- - 49f
Wed 12/17 11:00pm 11ft 14s 22 29 mph 1002mb 50f 49f
10:00pm 11ft 13s 22 27 mph 1003.4mb 50f 49f
9:00pm 10ft 14s 18 22 mph 1004mb 50f 49f
8:00pm 10ft 14s 20 25 mph 1004.2mb 50f 49f
7:00pm 11ft 13s 18 22 mph 1004.7mb 50f 49f
6:00pm 11.5ft 14s 16 20 mph 1004.8mb 50f 48f
5:00pm 11ft 14s 13 18 mph 1005.5mb 50f 48f
4:00pm 12ft 14s 13 18 mph 1005.4mb 50f 48f
3:00pm 13ft 14s 29 36 mph 1004.5mb 50f 48f
2:00pm 13ft 14s 25 29 mph 1005.1mb 50f 48f
1:00pm 13ft 14s 25 34 mph 1005.2mb 50f 49f
12:00pm 12ft 14s 25 31 mph 1005.8mb 50f 49f
11:00am 12ft 15s 25 31 mph 1006.2mb 50f 49f
10:00am 13ft 14s 25 31 mph 1006.2mb 50f 49f
9:00am 12.5ft 14s 22 29 mph 1005.8mb 50f 49f
8:00am 14ft 13s 22 29 mph 1006.1mb 50f 48f
7:00am 14ft 14s 20 27 mph 1006.3mb 50f 48f
6:00am 15ft 14s 18 22 mph 1006.7mb 50f 48f
5:00am 13.5ft 13s 16 22 mph 1006.7mb 50f 48f
4:00am 14ft 13s 13 20 mph 1006.8mb 50f 48f
3:00am 12ft 12s 13 18 mph 1006.5mb 50f 47f
2:00am 13ft 15s 13 18 mph 1006.2mb 50f 48f
1:00am 12.5ft 14s 11 16 mph 1005.9mb 50f 47f
12:00am 12ft 13s 9 13 mph 1006mb 50f 47f
Tue 12/16 11:00pm 11ft 11s 9 11 mph 1006mb 50f 47f